Loveland, Washington
Current Conditions -  °F | °C
As of 4:58 AM on Friday 19 Dec 2014 (Local Time) from KTCM Reporting Station
Few Clouds Few Clouds  
Wind Chill: 41°   Ceiling: Unl
Heat Index: 46°   Visibility: 10mi
Dew Point: 45°   Wind: 8mph
Humidity: 99%   Direction: 180°S
Pressure: 29.84"   Gusts: NA
Location:  47.0761°N, 122.396°W
Report Text: KTCM 191258Z AUTO 18007KT 10SM FEW130 08/07 A2984 RMK AO2 SLP110 P0001 T00750073
Loading
Personal Weather Stations






























Interactive Weather Map New forecast layout! Learn more

10-Day Weather Forecast

Advertisements
Track Severe Weather on mobile